Time;durP1;ratioP1;P1;durP2;ratioP2;P2;SDS_P1;SDS_P2;PMS_P1;PMS_P2;Temp;Humidity;BMP_temperature;BMP_pressure;BME280_temperature;BME280_humidity;BME280_pressure;Samples;Min_cycle;Max_cycle;Signal;HPM_P1;HPM_P2
2024/01/13 00:01:03;;;;;;;17.88;11.13;;;;;2.10;99611.00;;;;5072452;28;20097;-67
2024/01/13 00:03:29;;;;;;;18.17;11.95;;;;;2.10;99609.00;;;;5071703;28;20114;-68
2024/01/13 00:05:56;;;;;;;22.35;13.35;;;;;2.10;99611.00;;;;5072482;28;20129;-67
2024/01/13 00:08:23;;;;;;;18.65;11.13;;;;;2.00;99606.00;;;;5072239;28;20072;-68
2024/01/13 00:11:02;;;;;;;23.33;12.63;;;;;2.00;99601.00;;;;5071267;28;20146;-68
2024/01/13 00:13:29;;;;;;;19.95;12.30;;;;;2.00;99599.00;;;;5071546;28;20132;-68
2024/01/13 00:15:56;;;;;;;20.88;11.43;;;;;2.00;99593.00;;;;5072053;28;20538;-68
2024/01/13 00:18:22;;;;;;;20.65;11.98;;;;;1.90;99587.00;;;;5072131;28;20090;-68
2024/01/13 00:21:04;;;;;;;19.13;11.60;;;;;1.90;99586.00;;;;5072097;28;20049;-68
2024/01/13 00:23:31;;;;;;;21.20;13.30;;;;;1.90;99585.00;;;;5070228;28;20048;-68
2024/01/13 00:25:57;;;;;;;21.55;13.40;;;;;2.00;99586.00;;;;5071872;28;20055;-68
2024/01/13 00:28:24;;;;;;;20.60;13.30;;;;;1.90;99585.00;;;;5070569;28;20067;-68
2024/01/13 00:31:02;;;;;;;20.42;13.02;;;;;1.90;99591.00;;;;5072167;28;20494;-68
2024/01/13 00:33:29;;;;;;;23.75;12.82;;;;;1.90;99585.00;;;;5071667;28;20482;-69
2024/01/13 00:35:56;;;;;;;20.10;12.55;;;;;2.00;99577.00;;;;5070737;28;20044;-68
2024/01/13 00:38:23;;;;;;;23.17;13.27;;;;;2.00;99570.00;;;;5071800;28;20090;-68
2024/01/13 00:41:03;;;;;;;20.02;12.30;;;;;2.10;99570.00;;;;5070588;28;20552;-68
2024/01/13 00:43:30;;;;;;;19.63;11.75;;;;;2.10;99578.00;;;;5071387;28;20049;-68
2024/01/13 00:45:56;;;;;;;19.60;11.80;;;;;2.10;99571.00;;;;5071872;28;20412;-68
2024/01/13 00:48:23;;;;;;;20.13;13.32;;;;;2.10;99577.00;;;;5071763;28;20051;-68
2024/01/13 00:51:07;;;;;;;21.15;12.73;;;;;2.20;99568.00;;;;5071999;28;20045;-68
2024/01/13 00:53:34;;;;;;;20.40;12.63;;;;;2.20;99561.00;;;;5071301;28;20051;-68
2024/01/13 00:56:02;;;;;;;21.63;12.65;;;;;2.20;99557.00;;;;5071473;28;20059;-67
2024/01/13 00:58:28;;;;;;;20.02;11.63;;;;;2.20;99562.00;;;;5070479;28;20119;-68
2024/01/13 01:01:08;;;;;;;18.58;11.38;;;;;2.10;99561.00;;;;5071830;28;20405;-67
2024/01/13 01:03:35;;;;;;;20.77;12.38;;;;;2.00;99549.00;;;;5071195;28;20493;-67
2024/01/13 01:06:02;;;;;;;23.95;14.43;;;;;1.90;99550.00;;;;5070579;28;20143;-67
2024/01/13 01:08:29;;;;;;;20.75;12.88;;;;;2.00;99549.00;;;;5071658;28;20041;-68
2024/01/13 01:11:05;;;;;;;21.13;11.88;;;;;2.10;99552.00;;;;5071574;28;20048;-68
2024/01/13 01:13:32;;;;;;;19.52;11.55;;;;;2.20;99540.00;;;;5070935;28;20058;-69
2024/01/13 01:15:58;;;;;;;19.60;11.93;;;;;2.20;99541.00;;;;5070478;28;20044;-68
2024/01/13 01:18:25;;;;;;;18.95;11.95;;;;;2.20;99545.00;;;;5071361;28;20043;-68
2024/01/13 01:21:09;;;;;;;18.92;11.60;;;;;2.20;99546.00;;;;5071646;28;20382;-68
2024/01/13 01:23:36;;;;;;;19.23;11.88;;;;;2.10;99539.00;;;;5071004;28;20049;-68
2024/01/13 01:26:02;;;;;;;24.58;13.13;;;;;2.00;99535.00;;;;5071466;28;20491;-68
2024/01/13 01:28:29;;;;;;;21.42;12.95;;;;;2.00;99531.00;;;;5070256;28;20107;-68
2024/01/13 01:31:02;;;;;;;20.17;12.45;;;;;1.90;99533.00;;;;5071644;28;20051;-68
2024/01/13 01:33:29;;;;;;;21.83;13.00;;;;;1.90;99534.00;;;;5071151;28;20052;-69
2024/01/13 01:35:56;;;;;;;24.15;13.18;;;;;2.00;99523.00;;;;5073899;28;20048;-69
2024/01/13 01:38:23;;;;;;;21.60;12.60;;;;;2.10;99526.00;;;;5073842;28;20157;-69
2024/01/13 01:41:07;;;;;;;21.70;13.10;;;;;2.00;99529.00;;;;5075222;28;20063;-69
2024/01/13 01:43:33;;;;;;;22.52;13.52;;;;;1.80;99526.00;;;;5073464;28;20131;-68
2024/01/13 01:46:01;;;;;;;24.75;14.07;;;;;1.70;99530.00;;;;5073784;28;20047;-69
2024/01/13 01:48:34;;;;;;;22.27;12.07;;;;;1.80;99533.00;;;;5075217;28;20028;-68
2024/01/13 01:51:09;;;;;;;21.00;12.85;;;;;1.80;99517.00;;;;5075308;28;20053;-69
2024/01/13 01:53:37;;;;;;;20.42;12.55;;;;;1.80;99511.00;;;;5087992;28;20040;-69
2024/01/13 01:56:12;;;;;;;20.67;11.73;;;;;1.90;99515.00;;;;5100719;28;20038;-68
2024/01/13 01:58:39;;;;;;;22.08;11.68;;;;;1.90;99515.00;;;;5100718;28;20047;-68
2024/01/13 02:01:08;;;;;;;25.70;14.25;;;;;2.00;99508.00;;;;5100352;28;20036;-69
2024/01/13 02:03:37;;;;;;;20.23;12.73;;;;;2.00;99514.00;;;;5099909;28;20039;-69
2024/01/13 02:06:05;;;;;;;20.25;12.13;;;;;2.00;99506.00;;;;5100234;28;20066;-68
2024/01/13 02:08:33;;;;;;;22.02;12.55;;;;;2.10;99491.00;;;;5099745;28;20084;-68
2024/01/13 02:11:10;;;;;;;22.10;12.70;;;;;2.10;99499.00;;;;5088971;28;20417;-68
2024/01/13 02:13:36;;;;;;;20.20;12.05;;;;;2.10;99496.00;;;;5073766;28;20044;-68
2024/01/13 02:16:06;;;;;;;22.40;12.57;;;;;2.10;99503.00;;;;5074242;28;20044;-68
2024/01/13 02:18:32;;;;;;;20.40;11.75;;;;;2.10;99502.00;;;;5074293;28;20582;-68
2024/01/13 02:21:07;;;;;;;;;;;;;2.00;99502.00;;;;5073352;28;20052;-68
2024/01/13 02:23:34;;;;;;;20.80;11.68;;;;;2.00;99499.00;;;;5072170;28;19920;-68
2024/01/13 02:26:01;;;;;;;19.90;12.05;;;;;2.10;99491.00;;;;5074209;28;20401;-68
2024/01/13 02:28:29;;;;;;;20.05;12.20;;;;;2.10;99495.00;;;;5074346;28;20065;-68
2024/01/13 02:31:11;;;;;;;18.70;10.93;;;;;2.10;99497.00;;;;5075026;28;20091;-69
2024/01/13 02:33:37;;;;;;;18.88;11.73;;;;;2.10;99498.00;;;;5072519;28;20044;-68
2024/01/13 02:36:05;;;;;;;20.42;12.52;;;;;2.00;99493.00;;;;5073285;28;20452;-68
2024/01/13 02:38:32;;;;;;;21.35;11.93;;;;;2.00;99492.00;;;;5073669;28;20090;-68
2024/01/13 02:41:04;;;;;;;19.90;11.95;;;;;2.00;99478.00;;;;5073705;28;20052;-68
2024/01/13 02:43:32;;;;;;;21.98;11.88;;;;;2.10;99475.00;;;;5073152;28;20056;-68
2024/01/13 02:45:58;;;;;;;18.52;11.48;;;;;2.20;99472.00;;;;5072371;28;20048;-68
2024/01/13 02:48:25;;;;;;;21.90;11.52;;;;;2.20;99477.00;;;;5072402;28;20040;-68
2024/01/13 02:51:06;;;;;;;19.27;12.05;;;;;2.20;99468.00;;;;5072526;28;20482;-68
2024/01/13 02:53:33;;;;;;;19.50;11.90;;;;;1.90;99468.00;;;;5073126;28;20090;-68
2024/01/13 02:55:59;;;;;;;21.25;11.43;;;;;1.70;99459.00;;;;5073361;28;20075;-68
2024/01/13 02:58:26;;;;;;;24.42;12.68;;;;;1.50;99457.00;;;;5073201;28;20040;-69
2024/01/13 03:01:07;;;;;;;21.75;11.52;;;;;1.40;99453.00;;;;5073320;28;20044;-67
2024/01/13 03:03:34;;;;;;;21.63;12.48;;;;;1.40;99462.00;;;;5072803;28;20046;-68
2024/01/13 03:06:03;;;;;;;19.35;11.40;;;;;1.50;99461.00;;;;5072870;28;20055;-68
2024/01/13 03:08:31;;;;;;;23.40;11.73;;;;;1.60;99454.00;;;;5073150;28;20048;-68
2024/01/13 03:11:10;;;;;;;20.83;12.30;;;;;1.60;99450.00;;;;5073296;28;20124;-68
2024/01/13 03:13:37;;;;;;;19.67;11.57;;;;;1.70;99454.00;;;;5072534;28;20062;-67
2024/01/13 03:16:05;;;;;;;21.35;11.50;;;;;1.80;99450.00;;;;5073132;28;20063;-67
2024/01/13 03:18:32;;;;;;;20.50;11.18;;;;;1.90;99458.00;;;;5073056;28;20037;-68
2024/01/13 03:21:06;;;;;;;;;;;;;1.90;99449.00;;;;5072535;28;20390;-67
2024/01/13 03:23:33;;;;;;;20.95;12.40;;;;;1.70;99444.00;;;;5072435;28;19920;-68
2024/01/13 03:26:00;;;;;;;22.67;12.07;;;;;1.70;99436.00;;;;5071438;28;20120;-68
2024/01/13 03:28:27;;;;;;;24.42;13.25;;;;;1.80;99439.00;;;;5072803;28;20094;-68
2024/01/13 03:31:07;;;;;;;19.90;12.15;;;;;1.80;99440.00;;;;5072740;28;20051;-67
2024/01/13 03:33:34;;;;;;;21.50;11.63;;;;;1.90;99432.00;;;;5072104;28;20108;-68
2024/01/13 03:36:01;;;;;;;19.73;11.05;;;;;1.90;99435.00;;;;5071573;28;20045;-68
2024/01/13 03:38:27;;;;;;;20.65;11.73;;;;;1.90;99425.00;;;;5072491;28;20090;-68
2024/01/13 03:40:57;;;;;;;19.13;10.32;;;;;1.90;99428.00;;;;5071216;28;20066;-68
2024/01/13 03:43:23;;;;;;;15.70;10.10;;;;;1.90;99422.00;;;;5072051;28;20127;-68
2024/01/13 03:45:50;;;;;;;20.98;11.38;;;;;1.90;99421.00;;;;5071294;28;20049;-68
2024/01/13 03:48:17;;;;;;;21.67;11.32;;;;;2.00;99422.00;;;;5072456;28;20048;-68
2024/01/13 03:50:44;;;;;;;22.70;11.80;;;;;2.10;99414.00;;;;5072378;28;20044;-69
2024/01/13 03:53:10;;;;;;;21.73;12.57;;;;;2.00;99410.00;;;;5072546;28;20051;-67
2024/01/13 03:55:38;;;;;;;20.95;11.52;;;;;1.90;99403.00;;;;5053799;28;20051;-67
2024/01/13 03:58:04;;;;;;;27.13;13.57;;;;;1.80;99405.00;;;;5071772;28;20049;-67
2024/01/13 04:00:31;;;;;;;25.85;12.93;;;;;1.80;99408.00;;;;5072229;28;20068;-67
2024/01/13 04:02:57;;;;;;;22.85;12.35;;;;;1.90;99414.00;;;;5070911;28;20044;-67
2024/01/13 04:05:24;;;;;;;19.08;10.85;;;;;2.00;99420.00;;;;5070510;28;20076;-67
2024/01/13 04:07:51;;;;;;;21.17;11.57;;;;;2.00;99418.00;;;;5072220;28;20504;-67
2024/01/13 04:10:18;;;;;;;22.13;11.75;;;;;2.00;99412.00;;;;5070856;28;20664;-67
2024/01/13 04:12:45;;;;;;;21.00;11.57;;;;;2.00;99403.00;;;;5072091;28;20051;-67
2024/01/13 04:15:12;;;;;;;21.20;12.32;;;;;2.10;99400.00;;;;5071704;28;20044;-67
2024/01/13 04:17:38;;;;;;;22.52;12.75;;;;;2.00;99396.00;;;;5072074;28;20070;-67
2024/01/13 04:20:06;;;;;;;23.13;11.50;;;;;1.90;99396.00;;;;5070806;28;20516;-67
2024/01/13 04:22:33;;;;;;;25.10;13.27;;;;;2.00;99407.00;;;;5072027;28;20118;-67
2024/01/13 04:24:59;;;;;;;19.50;12.23;;;;;2.00;99406.00;;;;5071392;28;20067;-68
2024/01/13 04:27:26;;;;;;;23.55;12.43;;;;;2.00;99407.00;;;;5071006;28;20543;-66
2024/01/13 04:29:53;;;;;;;20.48;11.55;;;;;2.00;99416.00;;;;5071801;28;20628;-67
2024/01/13 04:32:19;;;;;;;21.88;11.30;;;;;2.00;99416.00;;;;5072114;28;20045;-67
2024/01/13 04:34:46;;;;;;;20.25;11.80;;;;;1.90;99419.00;;;;5073777;28;20048;-66
2024/01/13 04:37:13;;;;;;;20.63;11.35;;;;;2.00;99411.00;;;;5074827;28;20090;-67
2024/01/13 04:39:39;;;;;;;22.17;12.10;;;;;2.00;99409.00;;;;5072847;28;20072;-67
2024/01/13 04:42:06;;;;;;;20.63;11.65;;;;;1.90;99401.00;;;;5072176;28;20060;-66
2024/01/13 04:44:32;;;;;;;22.80;12.63;;;;;2.00;99400.00;;;;5071318;28;20048;-66
2024/01/13 04:46:59;;;;;;;24.33;11.93;;;;;2.10;99408.00;;;;5070672;28;20478;-66
2024/01/13 04:49:26;;;;;;;21.20;11.57;;;;;2.00;99407.00;;;;5071750;28;20033;-67
2024/01/13 04:51:53;;;;;;;24.13;13.07;;;;;2.00;99404.00;;;;5070552;28;20051;-67
2024/01/13 04:54:20;;;;;;;20.00;11.77;;;;;2.00;99408.00;;;;5071041;28;20509;-67
2024/01/13 04:56:47;;;;;;;22.23;12.10;;;;;2.00;99401.00;;;;5071785;28;20139;-67
2024/01/13 04:59:13;;;;;;;21.83;11.70;;;;;2.00;99411.00;;;;5070526;28;20045;-67
2024/01/13 05:01:40;;;;;;;22.90;12.32;;;;;2.00;99408.00;;;;5071758;28;20096;-67
2024/01/13 05:04:07;;;;;;;23.90;12.45;;;;;2.10;99404.00;;;;5071256;28;20561;-67
2024/01/13 05:06:34;;;;;;;20.23;12.07;;;;;2.10;99397.00;;;;5071624;28;20543;-68
2024/01/13 05:09:02;;;;;;;25.52;12.90;;;;;2.00;99385.00;;;;5071619;28;20485;-67
2024/01/13 05:11:29;;;;;;;25.20;13.38;;;;;2.00;99386.00;;;;5074787;28;20044;-68
2024/01/13 05:13:56;;;;;;;25.65;12.55;;;;;2.00;99402.00;;;;5073658;28;20051;-68
2024/01/13 05:16:22;;;;;;;23.00;12.40;;;;;2.00;99393.00;;;;5075276;28;20044;-68
2024/01/13 05:18:49;;;;;;;23.50;12.75;;;;;2.00;99389.00;;;;5075223;28;20079;-68
2024/01/13 05:21:15;;;;;;;21.35;11.93;;;;;2.00;99375.00;;;;5075316;28;20120;-68
2024/01/13 05:23:42;;;;;;;19.20;10.60;;;;;2.00;99376.00;;;;5074610;28;20122;-68
2024/01/13 05:26:08;;;;;;;21.27;12.13;;;;;2.10;99377.00;;;;5074047;28;20543;-68
2024/01/13 05:28:35;;;;;;;22.95;11.85;;;;;2.20;99380.00;;;;5075380;28;20115;-68
2024/01/13 05:31:02;;;;;;;21.30;11.43;;;;;2.20;99377.00;;;;5075240;28;20113;-69
2024/01/13 05:33:29;;;;;;;22.63;11.82;;;;;2.20;99383.00;;;;5074717;28;20041;-68
2024/01/13 05:35:56;;;;;;;21.58;12.50;;;;;2.20;99387.00;;;;5073955;28;20453;-68
2024/01/13 05:38:22;;;;;;;23.35;12.27;;;;;2.20;99383.00;;;;5074161;28;20681;-68
2024/01/13 05:40:49;;;;;;;21.65;11.77;;;;;2.10;99374.00;;;;5075067;28;20041;-68
2024/01/13 05:43:16;;;;;;;21.00;11.25;;;;;2.20;99370.00;;;;5077300;28;20123;-68
2024/01/13 05:45:43;;;;;;;22.25;11.80;;;;;2.20;99366.00;;;;5079962;28;20115;-68
2024/01/13 05:48:10;;;;;;;22.70;12.18;;;;;2.10;99368.00;;;;5079991;28;20106;-68
2024/01/13 05:50:37;;;;;;;22.73;11.40;;;;;2.00;99357.00;;;;5078744;28;20048;-67
2024/01/13 05:53:04;;;;;;;18.60;11.23;;;;;1.90;99365.00;;;;5079732;28;20049;-67
2024/01/13 05:55:30;;;;;;;22.00;11.77;;;;;1.80;99349.00;;;;5082798;28;20513;-67
2024/01/13 05:57:57;;;;;;;22.52;13.07;;;;;1.60;99352.00;;;;5088214;28;20048;-67
2024/01/13 06:00:24;;;;;;;19.02;10.30;;;;;1.70;99331.00;;;;5080126;28;20518;-67
2024/01/13 06:02:51;;;;;;;18.70;10.93;;;;;1.70;99338.00;;;;5077176;28;20055;-68
2024/01/13 06:05:17;;;;;;;18.00;10.85;;;;;1.80;99334.00;;;;5075800;28;20409;-68
2024/01/13 06:07:44;;;;;;;34.60;16.88;;;;;1.90;99336.00;;;;5077577;28;20048;-68
2024/01/13 06:10:11;;;;;;;22.50;10.93;;;;;1.90;99344.00;;;;5076799;28;20561;-68
2024/01/13 06:12:38;;;;;;;21.83;11.68;;;;;1.90;99339.00;;;;5080549;28;20098;-68
2024/01/13 06:15:07;;;;;;;17.40;11.38;;;;;1.90;99339.00;;;;5079212;28;20072;-68
2024/01/13 06:17:33;;;;;;;20.90;11.88;;;;;1.70;99333.00;;;;5078681;28;20040;-68
2024/01/13 06:20:00;;;;;;;21.23;11.98;;;;;1.70;99327.00;;;;5076637;28;20041;-68
2024/01/13 06:22:27;;;;;;;20.45;10.55;;;;;1.70;99332.00;;;;5075123;28;20135;-68
2024/01/13 06:24:54;;;;;;;19.90;11.43;;;;;1.70;99345.00;;;;5077930;28;20074;-68
2024/01/13 06:27:20;;;;;;;20.40;11.00;;;;;1.80;99333.00;;;;5078788;28;20532;-68
2024/01/13 06:29:47;;;;;;;19.30;10.75;;;;;1.90;99336.00;;;;5076731;28;20043;-68
2024/01/13 06:32:13;;;;;;;19.05;10.38;;;;;2.00;99341.00;;;;5075109;28;20048;-68
2024/01/13 06:34:40;;;;;;;19.40;10.50;;;;;2.00;99341.00;;;;5076248;28;20056;-68
2024/01/13 06:37:07;;;;;;;17.45;10.77;;;;;2.00;99345.00;;;;5075921;28;20521;-68
2024/01/13 06:39:34;;;;;;;21.90;10.95;;;;;2.00;99335.00;;;;5076850;28;20045;-68
2024/01/13 06:42:05;;;;;;;25.58;12.70;;;;;2.00;99335.00;;;;5078524;28;20075;-68
2024/01/13 06:44:33;;;;;;;19.73;11.63;;;;;2.00;99329.00;;;;5077419;28;20056;-68
2024/01/13 06:47:09;;;;;;;20.02;10.57;;;;;2.00;99318.00;;;;5078530;28;20059;-68
2024/01/13 06:49:36;;;;;;;20.83;12.27;;;;;2.00;99320.00;;;;5077144;28;20048;-68
2024/01/13 06:52:03;;;;;;;19.90;10.73;;;;;2.00;99319.00;;;;5075466;28;20044;-68
2024/01/13 06:54:30;;;;;;;16.83;8.80;;;;;2.00;99309.00;;;;5077350;28;20097;-68
2024/01/13 06:56:56;;;;;;;16.00;9.05;;;;;2.10;99293.00;;;;5077278;28;20052;-68
2024/01/13 06:59:23;;;;;;;14.00;8.50;;;;;2.10;99288.00;;;;5075241;28;20044;-68
2024/01/13 07:01:50;;;;;;;10.98;6.68;;;;;2.10;99290.00;;;;5076657;28;20056;-68
2024/01/13 07:04:17;;;;;;;12.73;6.72;;;;;2.20;99285.00;;;;5077077;28;20135;-68
2024/01/13 07:06:44;;;;;;;12.40;6.82;;;;;2.20;99283.00;;;;5077572;28;20048;-68
2024/01/13 07:09:11;;;;;;;6.13;3.88;;;;;2.20;99284.00;;;;5075669;28;20090;-68
2024/01/13 07:11:38;;;;;;;5.47;3.63;;;;;2.30;99277.00;;;;5073019;28;20055;-68
2024/01/13 07:14:05;;;;;;;7.10;3.20;;;;;2.30;99280.00;;;;5071891;28;20830;-68
2024/01/13 07:16:32;;;;;;;10.57;6.65;;;;;2.20;99290.00;;;;5075550;28;20444;-68
2024/01/13 07:18:59;;;;;;;12.95;7.50;;;;;2.20;99311.00;;;;5073592;28;20070;-68
2024/01/13 07:21:26;;;;;;;14.75;7.68;;;;;2.10;99309.00;;;;5074019;28;20048;-68
2024/01/13 07:23:53;;;;;;;14.82;6.50;;;;;2.10;99298.00;;;;5073081;28;20132;-68
2024/01/13 07:26:20;;;;;;;11.95;7.70;;;;;2.10;99305.00;;;;5072036;28;20063;-68
2024/01/13 07:28:46;;;;;;;14.18;7.82;;;;;2.10;99293.00;;;;5078402;28;20044;-68
2024/01/13 07:31:13;;;;;;;9.95;5.90;;;;;2.10;99296.00;;;;5074196;28;20071;-68
2024/01/13 07:33:41;;;;;;;8.55;4.88;;;;;2.20;99296.00;;;;5073311;28;20080;-68
2024/01/13 07:36:08;;;;;;;6.95;4.00;;;;;2.30;99296.00;;;;5074684;28;20049;-68
2024/01/13 07:38:35;;;;;;;7.25;4.85;;;;;2.20;99295.00;;;;5077231;28;20083;-68
2024/01/13 07:41:01;;;;;;;5.28;3.60;;;;;2.10;99311.00;;;;5078486;28;20036;-68
2024/01/13 07:43:28;;;;;;;5.55;3.65;;;;;2.00;99314.00;;;;5078124;28;20158;-68
2024/01/13 07:45:55;;;;;;;6.20;3.80;;;;;2.00;99311.00;;;;5079856;28;20075;-68
2024/01/13 07:48:22;;;;;;;6.65;3.78;;;;;2.00;99314.00;;;;5083267;28;20163;-68
2024/01/13 07:50:49;;;;;;;4.78;4.00;;;;;2.00;99312.00;;;;5082018;28;20051;-68
2024/01/13 07:53:15;;;;;;;7.05;4.50;;;;;2.10;99297.00;;;;5080702;28;20053;-67
2024/01/13 07:55:43;;;;;;;8.25;5.03;;;;;2.10;99316.00;;;;5082344;28;20080;-67
2024/01/13 07:58:09;;;;;;;9.57;6.05;;;;;2.10;99312.00;;;;5092109;28;20048;-66
2024/01/13 08:00:36;;;;;;;11.20;5.90;;;;;2.10;99304.00;;;;5094721;28;20051;-67
2024/01/13 08:03:04;;;;;;;9.50;5.13;;;;;2.10;99293.00;;;;5092900;28;20049;-67
2024/01/13 08:05:31;;;;;;;9.05;5.70;;;;;2.00;99296.00;;;;5093549;28;20048;-67
2024/01/13 08:08:01;;;;;;;6.75;4.68;;;;;2.00;99323.00;;;;5092767;28;20044;-67
2024/01/13 08:10:28;;;;;;;7.68;4.05;;;;;2.00;99322.00;;;;5092148;28;20126;-67
2024/01/13 08:12:55;;;;;;;7.25;4.65;;;;;1.90;99326.00;;;;5083045;28;20056;-67
2024/01/13 08:15:21;;;;;;;6.75;4.20;;;;;1.80;99332.00;;;;5075832;28;20048;-67
2024/01/13 08:17:48;;;;;;;9.00;5.43;;;;;1.80;99322.00;;;;5076645;28;20044;-66
2024/01/13 08:20:15;;;;;;;11.90;7.95;;;;;2.00;99316.00;;;;5075027;28;20123;-65
2024/01/13 08:22:41;;;;;;;8.85;5.53;;;;;2.10;99325.00;;;;5076248;28;20041;-66
2024/01/13 08:25:08;;;;;;;6.50;4.30;;;;;2.20;99326.00;;;;5078233;28;20036;-66
2024/01/13 08:27:34;;;;;;;6.30;4.30;;;;;2.20;99320.00;;;;5078994;28;20071;-66
2024/01/13 08:30:01;;;;;;;6.45;4.63;;;;;2.20;99324.00;;;;5078556;28;20051;-66
2024/01/13 08:32:28;;;;;;;5.93;4.13;;;;;2.20;99326.00;;;;5078271;28;20075;-66
2024/01/13 08:34:54;;;;;;;5.43;3.35;;;;;2.20;99329.00;;;;5080873;28;20082;-66
2024/01/13 08:37:21;;;;;;;5.15;3.72;;;;;2.20;99338.00;;;;5083382;28;20067;-66
2024/01/13 08:39:48;;;;;;;5.28;3.60;;;;;2.30;99334.00;;;;5081069;28;20044;-66
2024/01/13 08:42:15;;;;;;;4.78;3.30;;;;;2.20;99340.00;;;;5076945;28;20162;-66
2024/01/13 08:44:42;;;;;;;5.32;3.78;;;;;2.20;99333.00;;;;5084014;28;20127;-66
2024/01/13 08:47:11;;;;;;;5.38;3.90;;;;;2.30;99336.00;;;;5079118;28;20123;-66
2024/01/13 08:49:39;;;;;;;4.50;3.47;;;;;2.30;99331.00;;;;5085217;28;20097;-66
2024/01/13 08:52:08;;;;;;;8.68;4.03;;;;;2.30;99327.00;;;;5086794;28;20336;-66
2024/01/13 08:54:36;;;;;;;6.28;3.95;;;;;2.30;99320.00;;;;5081593;28;20051;-66
2024/01/13 08:57:04;;;;;;;4.07;3.20;;;;;2.20;99327.00;;;;5078931;28;20067;-66
2024/01/13 08:59:33;;;;;;;5.43;3.90;;;;;2.20;99325.00;;;;5077343;28;20047;-66
2024/01/13 09:02:00;;;;;;;7.45;4.32;;;;;2.10;99316.00;;;;5077310;28;20079;-66
2024/01/13 09:04:27;;;;;;;5.40;3.53;;;;;2.10;99318.00;;;;5074801;28;20055;-66
2024/01/13 09:06:53;;;;;;;8.05;5.50;;;;;2.20;99320.00;;;;5076153;28;20040;-66
2024/01/13 09:09:20;;;;;;;6.75;4.03;;;;;2.20;99304.00;;;;5076040;28;20131;-66
2024/01/13 09:11:47;;;;;;;6.05;4.30;;;;;2.20;99306.00;;;;5076236;28;20444;-66
2024/01/13 09:14:16;;;;;;;5.35;3.85;;;;;2.20;99315.00;;;;5075757;28;20090;-66
2024/01/13 09:16:45;;;;;;;6.22;4.13;;;;;2.20;99297.00;;;;5075350;28;20051;-65
2024/01/13 09:19:12;;;;;;;5.07;3.60;;;;;2.20;99294.00;;;;5075511;28;20041;-66
2024/01/13 09:21:40;;;;;;;5.60;4.30;;;;;2.20;99290.00;;;;5075412;28;20047;-66
2024/01/13 09:24:12;;;;;;;10.88;7.15;;;;;2.30;99297.00;;;;5074815;28;20040;-66
2024/01/13 09:26:43;;;;;;;5.28;4.10;;;;;2.30;99292.00;;;;5074228;28;20048;-67
2024/01/13 09:29:15;;;;;;;6.75;4.22;;;;;2.30;99292.00;;;;5074037;28;20041;-66
2024/01/13 09:31:44;;;;;;;6.35;4.60;;;;;2.30;99296.00;;;;5075513;28;20405;-66
2024/01/13 09:34:11;;;;;;;7.03;4.70;;;;;2.20;99307.00;;;;5074828;28;20048;-66
2024/01/13 09:36:42;;;;;;;6.32;4.30;;;;;2.20;99296.00;;;;5075224;28;20497;-66
2024/01/13 09:39:14;;;;;;;6.22;3.90;;;;;2.20;99296.00;;;;5075424;28;20052;-66
2024/01/13 09:41:43;;;;;;;5.47;4.13;;;;;2.20;99298.00;;;;5074932;28;20120;-66
2024/01/13 09:44:27;;;;;;;7.35;4.60;;;;;2.30;99289.00;;;;5074859;28;20044;-66
2024/01/13 09:46:56;;;;;;;6.60;4.70;;;;;2.30;99288.00;;;;5075145;28;20690;-66
2024/01/13 09:49:25;;;;;;;7.40;4.72;;;;;2.20;99288.00;;;;5074839;28;20408;-66
2024/01/13 09:51:53;;;;;;;8.43;4.68;;;;;2.10;99270.00;;;;5075147;28;20071;-66
2024/01/13 09:54:28;;;;;;;7.18;5.55;;;;;2.20;99274.00;;;;5074673;28;20489;-65
2024/01/13 09:56:57;;;;;;;5.05;4.50;;;;;2.20;99278.00;;;;5074003;28;20045;-66
2024/01/13 09:59:28;;;;;;;7.03;4.97;;;;;2.20;99267.00;;;;5073335;28;20509;-65
2024/01/13 10:01:56;;;;;;;7.55;4.85;;;;;2.20;99257.00;;;;5074514;28;20046;-66
2024/01/13 10:04:22;;;;;;;6.65;4.45;;;;;2.20;99269.00;;;;5074314;28;20083;-65
2024/01/13 10:06:49;;;;;;;6.90;4.68;;;;;2.20;99278.00;;;;5073786;28;20052;-66
2024/01/13 10:09:16;;;;;;;6.60;4.85;;;;;2.20;99286.00;;;;5073304;28;20084;-65
2024/01/13 10:12:02;;;;;;;6.50;5.20;;;;;2.20;99266.00;;;;5074750;28;20493;-65
2024/01/13 10:14:29;;;;;;;10.23;6.15;;;;;2.30;99274.00;;;;5072763;28;20049;-65
2024/01/13 10:17:00;;;;;;;9.65;6.65;;;;;2.30;99250.00;;;;5074466;28;20454;-66
2024/01/13 10:19:27;;;;;;;8.18;5.30;;;;;2.40;99251.00;;;;5073105;28;20059;-66
2024/01/13 10:21:56;;;;;;;11.60;8.25;;;;;2.40;99235.00;;;;5073137;28;20075;-66
2024/01/13 10:24:23;;;;;;;8.65;5.28;;;;;2.40;99223.00;;;;5073490;28;20102;-65
2024/01/13 10:26:49;;;;;;;7.68;6.13;;;;;2.30;99233.00;;;;5073382;28;20052;-65
2024/01/13 10:29:19;;;;;;;9.93;6.07;;;;;2.30;99212.00;;;;5074460;28;20044;-65
2024/01/13 10:31:50;;;;;;;8.48;6.40;;;;;2.20;99204.00;;;;5072887;28;20135;-65
2024/01/13 10:34:19;;;;;;;8.85;5.57;;;;;2.20;99212.00;;;;5074072;28;20096;-65
2024/01/13 10:36:46;;;;;;;8.30;6.50;;;;;2.20;99207.00;;;;5074171;28;20041;-65
2024/01/13 10:39:14;;;;;;;8.98;5.82;;;;;2.20;99206.00;;;;5074052;28;20127;-66
2024/01/13 10:41:50;;;;;;;10.55;6.68;;;;;2.20;99203.00;;;;5073891;28;20047;-65
2024/01/13 10:44:21;;;;;;;10.10;6.60;;;;;2.20;99215.00;;;;5073502;28;20455;-65
2024/01/13 10:46:51;;;;;;;10.43;7.22;;;;;2.10;99217.00;;;;5073861;28;20048;-65
2024/01/13 10:49:31;;;;;;;18.65;10.32;;;;;2.10;99223.00;;;;5073860;28;20049;-66
2024/01/13 10:51:58;;;;;;;13.40;7.72;;;;;2.00;99224.00;;;;5073811;28;20094;-65
2024/01/13 10:54:28;;;;;;;11.88;6.63;;;;;2.00;99211.00;;;;5072054;28;20076;-65
2024/01/13 10:56:55;;;;;;;9.35;6.78;;;;;2.10;99181.00;;;;5072442;28;20489;-65
2024/01/13 10:59:30;;;;;;;11.68;8.00;;;;;2.10;99170.00;;;;5073520;28;20045;-65
2024/01/13 11:01:58;;;;;;;8.85;6.40;;;;;2.10;99169.00;;;;5073411;28;20171;-66
2024/01/13 11:04:27;;;;;;;10.80;7.18;;;;;2.10;99166.00;;;;5072670;28;20040;-66
2024/01/13 11:06:54;;;;;;;8.77;6.60;;;;;2.10;99172.00;;;;5072971;28;20098;-66
2024/01/13 11:09:23;;;;;;;8.25;5.90;;;;;2.10;99183.00;;;;5072511;28;20111;-66
2024/01/13 11:12:04;;;;;;;10.82;7.15;;;;;2.10;99195.00;;;;5071638;28;20043;-66
2024/01/13 11:14:37;;;;;;;10.43;7.15;;;;;2.10;99195.00;;;;5071359;28;20052;-66
2024/01/13 11:17:06;;;;;;;9.25;6.20;;;;;2.20;99193.00;;;;5072799;28;20449;-66
2024/01/13 11:19:35;;;;;;;11.25;6.40;;;;;2.10;99175.00;;;;5071781;28;20083;-65
2024/01/13 11:22:32;;;;;;;8.20;6.05;;;;;2.00;99179.00;;;;5072943;28;20747;-65
2024/01/13 11:25:25;;;;;;;10.00;6.38;;;;;2.00;99165.00;;;;5072244;28;20041;-65
2024/01/13 11:27:54;;;;;;;12.02;7.25;;;;;2.10;99165.00;;;;5071819;28;20045;-65
2024/01/13 11:30:30;;;;;;;10.15;6.60;;;;;2.10;99153.00;;;;5071446;28;20075;-65
2024/01/13 11:32:58;;;;;;;8.93;6.40;;;;;2.10;99121.00;;;;5072621;28;20072;-65
2024/01/13 11:35:25;;;;;;;9.45;6.47;;;;;2.10;99116.00;;;;5072398;28;20455;-65
2024/01/13 11:37:54;;;;;;;8.23;6.70;;;;;2.10;99113.00;;;;5072477;28;20072;-65
2024/01/13 11:40:21;;;;;;;8.82;6.13;;;;;2.00;99114.00;;;;5072404;28;20048;-65
2024/01/13 11:42:57;;;;;;;9.52;6.07;;;;;2.10;99106.00;;;;5071300;28;20055;-66
2024/01/13 11:45:33;;;;;;;9.93;6.47;;;;;2.10;99092.00;;;;5072162;28;20048;-65
2024/01/13 11:48:38;;;;;;;10.50;7.47;;;;;2.10;99096.00;;;;5072845;28;20408;-65
2024/01/13 11:51:08;;;;;;;9.48;6.57;;;;;2.10;99072.00;;;;5072464;28;20080;-66
2024/01/13 11:53:43;;;;;;;10.48;7.22;;;;;2.10;99058.00;;;;5072051;28;20461;-66
2024/01/13 11:56:12;;;;;;;9.93;7.05;;;;;2.10;99047.00;;;;5071177;28;20119;-65
2024/01/13 11:58:39;;;;;;;9.65;6.93;;;;;2.20;99043.00;;;;5072117;28;20051;-65
2024/01/13 12:01:08;;;;;;;12.20;7.65;;;;;2.20;99048.00;;;;5071034;28;20048;-65
2024/01/13 12:03:39;;;;;;;12.07;6.97;;;;;2.20;99056.00;;;;5070785;28;20041;-65
2024/01/13 12:06:08;;;;;;;11.63;6.88;;;;;2.10;99064.00;;;;5072384;28;20045;-65
2024/01/13 12:08:35;;;;;;;10.40;7.35;;;;;2.10;99076.00;;;;5072220;28;20459;-65
2024/01/13 12:11:02;;;;;;;9.55;6.10;;;;;2.10;99058.00;;;;5071970;28;20036;-65
2024/01/13 12:13:29;;;;;;;11.45;6.78;;;;;2.20;99041.00;;;;5070403;28;20062;-66
2024/01/13 12:16:07;;;;;;;11.60;7.65;;;;;2.20;99058.00;;;;5072472;28;20049;-65
2024/01/13 12:18:35;;;;;;;12.32;7.93;;;;;2.10;99064.00;;;;5071938;28;20040;-65
2024/01/13 12:21:03;;;;;;;13.93;7.80;;;;;2.10;99057.00;;;;5072316;28;20102;-65
2024/01/13 12:23:30;;;;;;;10.73;7.38;;;;;2.00;99088.00;;;;5071826;28;20040;-65